Time;durP1;ratioP1;P1;durP2;ratioP2;P2;SDS_P1;SDS_P2;PMS_P1;PMS_P2;Temp;Humidity;BMP_temperature;BMP_pressure;BME280_temperature;BME280_humidity;BME280_pressure;Samples;Min_cycle;Max_cycle;Signal;HPM_P1;HPM_P2
2021/03/02 00:00:11;;;;;;;63.58;32.25;;;;;;;;;;1037105;28;20049;-78
2021/03/02 00:00:42;;;;;;;56.58;31.30;;;;;;;;;;1040194;28;20386;-79
2021/03/02 00:01:14;;;;;;;58.28;31.30;;;;;;;;;;1042025;28;20184;-78
2021/03/02 00:01:46;;;;;;;52.15;28.75;;;;;;;;;;1040778;28;20513;-79
2021/03/02 00:02:17;;;;;;;58.58;31.17;;;;;;;;;;1036433;28;20426;-79
2021/03/02 00:02:50;;;;;;;61.53;31.70;;;;;;;;;;1036228;28;20123;-79
2021/03/02 00:03:21;;;;;;;61.13;33.75;;;;;;;;;;1032763;28;20057;-78
2021/03/02 00:03:53;;;;;;;54.72;30.23;;;;;;;;;;1032824;28;20285;-78
2021/03/02 00:04:24;;;;;;;54.88;31.08;;;;;;;;;;1039056;28;20060;-78
2021/03/02 00:04:56;;;;;;;56.60;29.80;;;;;;;;;;1038390;28;20050;-78
2021/03/02 00:05:27;;;;;;;53.50;29.58;;;;;;;;;;1036230;28;20433;-78
2021/03/02 00:06:01;;;;;;;50.78;28.60;;;;;;;;;;1029112;28;20515;-78
2021/03/02 00:06:32;;;;;;;53.38;29.42;;;;;;;;;;1032955;28;20046;-78
2021/03/02 00:07:03;;;;;;;49.97;27.77;;;;;;;;;;1032896;28;20042;-79
2021/03/02 00:07:35;;;;;;;47.67;29.60;;;;;;;;;;1037520;28;20054;-78
2021/03/02 00:08:07;;;;;;;58.40;30.83;;;;;;;;;;1040321;28;20069;-78
2021/03/02 00:08:38;;;;;;;54.78;28.52;;;;;;;;;;1032244;28;20046;-78
2021/03/02 00:09:09;;;;;;;48.40;29.05;;;;;;;;;;1030465;28;20051;-78
2021/03/02 00:09:47;;;;;;;49.65;28.67;;;;;;;;;;1041373;28;20049;-78
2021/03/02 00:10:42;;;;;;;51.33;28.65;;;;;;;;;;1044252;28;20048;-78
2021/03/02 00:11:14;;;;;;;57.50;30.88;;;;;;;;;;1044528;28;20049;-78
2021/03/02 00:11:47;;;;;;;55.70;29.27;;;;;;;;;;1040155;28;20056;-79
2021/03/02 00:12:19;;;;;;;56.05;30.77;;;;;;;;;;1044353;28;20063;-79
2021/03/02 00:12:51;;;;;;;64.55;31.88;;;;;;;;;;1036102;28;20052;-79
2021/03/02 00:13:23;;;;;;;55.70;29.70;;;;;;;;;;1040344;28;20049;-78
2021/03/02 00:13:54;;;;;;;56.17;30.08;;;;;;;;;;1040864;28;20100;-78
2021/03/02 00:14:25;;;;;;;53.85;28.60;;;;;;;;;;1036870;28;20050;-79
2021/03/02 00:14:56;;;;;;;51.70;29.67;;;;;;;;;;1040595;28;20073;-79
2021/03/02 00:15:27;;;;;;;58.92;30.65;;;;;;;;;;1036654;28;20050;-78
2021/03/02 00:16:03;;;;;;;58.13;29.95;;;;;;;;;;1032624;28;20135;-78
2021/03/02 00:16:37;;;;;;;50.72;28.52;;;;;;;;;;1040256;28;20045;-79
2021/03/02 00:17:24;;;;;;;52.15;27.85;;;;;;;;;;1036636;28;20056;-78
2021/03/02 00:17:56;;;;;;;52.63;28.92;;;;;;;;;;1043851;28;20079;-79
2021/03/02 00:18:33;;;;;;;50.90;28.13;;;;;;;;;;1044317;28;20048;-78
2021/03/02 00:19:09;;;;;;;53.92;28.95;;;;;;;;;;1046833;28;20429;-78
2021/03/02 00:19:45;;;;;;;56.65;28.33;;;;;;;;;;1043729;28;20060;-78
2021/03/02 00:20:23;;;;;;;47.17;27.77;;;;;;;;;;1044605;28;20056;-79
2021/03/02 00:21:04;;;;;;;51.15;27.30;;;;;;;;;;1044367;28;20055;-79
2021/03/02 00:21:40;;;;;;;46.65;25.67;;;;;;;;;;1052032;28;20126;-78
2021/03/02 00:22:22;;;;;;;54.85;28.50;;;;;;;;;;1052586;28;20056;-78
2021/03/02 00:22:57;;;;;;;49.75;28.38;;;;;;;;;;1044139;28;20049;-78
2021/03/02 00:23:35;;;;;;;53.13;29.35;;;;;;;;;;1047391;28;20044;-78
2021/03/02 00:24:09;;;;;;;51.15;28.92;;;;;;;;;;1040154;28;20056;-78
2021/03/02 00:24:42;;;;;;;46.42;27.38;;;;;;;;;;1044598;28;20057;-78
2021/03/02 00:25:13;;;;;;;55.75;29.70;;;;;;;;;;1048371;28;20041;-79
2021/03/02 00:25:48;;;;;;;57.60;29.23;;;;;;;;;;1048595;28;20053;-79
2021/03/02 00:26:20;;;;;;;53.80;29.65;;;;;;;;;;1045146;28;20079;-78
2021/03/02 00:26:53;;;;;;;50.15;28.73;;;;;;;;;;1041401;28;20685;-78
2021/03/02 00:27:24;;;;;;;54.70;30.30;;;;;;;;;;1044214;28;20067;-79
2021/03/02 00:27:56;;;;;;;51.17;29.42;;;;;;;;;;1036985;28;20042;-79
2021/03/02 00:28:27;;;;;;;53.50;30.05;;;;;;;;;;1041474;28;20049;-78
2021/03/02 00:29:04;;;;;;;52.38;30.55;;;;;;;;;;1044596;28;20408;-79
2021/03/02 00:29:38;;;;;;;59.53;30.98;;;;;;;;;;1046763;28;20056;-78
2021/03/02 00:30:10;;;;;;;55.58;30.27;;;;;;;;;;1048448;28;20133;-78
2021/03/02 00:30:41;;;;;;;53.42;29.95;;;;;;;;;;1044264;28;20053;-79
2021/03/02 00:31:13;;;;;;;52.15;29.70;;;;;;;;;;1043648;28;20131;-78
2021/03/02 00:31:44;;;;;;;54.85;30.35;;;;;;;;;;1036021;28;20464;-78
2021/03/02 00:32:18;;;;;;;52.75;30.08;;;;;;;;;;1040371;28;20151;-78
2021/03/02 00:32:50;;;;;;;52.03;29.50;;;;;;;;;;1040102;28;20045;-78
2021/03/02 00:33:22;;;;;;;55.58;29.90;;;;;;;;;;1040236;28;20461;-78
2021/03/02 00:33:53;;;;;;;51.05;28.58;;;;;;;;;;1044226;28;20057;-78
2021/03/02 00:34:25;;;;;;;51.88;30.20;;;;;;;;;;1040987;28;20045;-78
2021/03/02 00:34:56;;;;;;;53.47;28.98;;;;;;;;;;1040112;28;20053;-77
2021/03/02 00:35:27;;;;;;;47.03;27.02;;;;;;;;;;1035981;28;20054;-78
2021/03/02 00:35:58;;;;;;;46.53;26.25;;;;;;;;;;1040098;28;20422;-78
2021/03/02 00:36:29;;;;;;;52.80;28.55;;;;;;;;;;1040968;28;20478;-79
2021/03/02 00:37:00;;;;;;;52.60;29.63;;;;;;;;;;1044642;28;20048;-78
2021/03/02 00:37:31;;;;;;;54.88;29.95;;;;;;;;;;1044366;28;20049;-78
2021/03/02 00:38:02;;;;;;;50.58;29.08;;;;;;;;;;1040165;28;20120;-79
2021/03/02 00:38:33;;;;;;;53.88;29.55;;;;;;;;;;1035987;28;20520;-78
2021/03/02 00:39:05;;;;;;;48.00;27.85;;;;;;;;;;1040429;28;20059;-79
2021/03/02 00:39:36;;;;;;;55.75;30.88;;;;;;;;;;1040493;28;20053;-79
2021/03/02 00:40:07;;;;;;;55.25;29.30;;;;;;;;;;1040849;28;20050;-79
2021/03/02 00:40:52;;;;;;;52.35;28.98;;;;;;;;;;1044413;28;20048;-78
2021/03/02 00:41:23;;;;;;;50.75;28.33;;;;;;;;;;1037877;28;20053;-79
2021/03/02 00:41:54;;;;;;;49.15;27.90;;;;;;;;;;1038428;28;20048;-78
2021/03/02 00:42:25;;;;;;;57.10;29.63;;;;;;;;;;1038237;28;20057;-78
2021/03/02 00:42:57;;;;;;;54.20;31.70;;;;;;;;;;1040705;28;20053;-78
2021/03/02 00:43:28;;;;;;;53.67;28.98;;;;;;;;;;1044774;28;20044;-79
2021/03/02 00:43:59;;;;;;;51.95;29.10;;;;;;;;;;1048950;28;20048;-78
2021/03/02 00:44:30;;;;;;;53.38;29.80;;;;;;;;;;1048467;28;20114;-79
2021/03/02 00:45:01;;;;;;;48.58;28.55;;;;;;;;;;1044277;28;20114;-78
2021/03/02 00:45:32;;;;;;;54.80;30.38;;;;;;;;;;1044185;28;20175;-79
2021/03/02 00:46:04;;;;;;;57.15;29.52;;;;;;;;;;1040747;28;20053;-78
2021/03/02 00:46:35;;;;;;;50.95;28.27;;;;;;;;;;1036622;28;20402;-78
2021/03/02 00:47:07;;;;;;;53.05;30.95;;;;;;;;;;1036524;28;20050;-78
2021/03/02 00:47:38;;;;;;;51.92;29.27;;;;;;;;;;1044420;28;20516;-79
2021/03/02 00:48:11;;;;;;;53.45;29.88;;;;;;;;;;1044290;28;20097;-78
2021/03/02 00:48:42;;;;;;;53.50;31.45;;;;;;;;;;1040119;28;20120;-78
2021/03/02 00:49:13;;;;;;;51.53;29.00;;;;;;;;;;1035929;28;20116;-79
2021/03/02 00:49:44;;;;;;;60.30;31.27;;;;;;;;;;1033066;28;20527;-79
2021/03/02 00:50:15;;;;;;;53.35;29.55;;;;;;;;;;1044815;28;20493;-78
2021/03/02 00:50:46;;;;;;;51.13;27.70;;;;;;;;;;1044744;28;20113;-79
2021/03/02 00:51:17;;;;;;;55.55;30.15;;;;;;;;;;1042767;28;20056;-78
2021/03/02 00:51:49;;;;;;;60.05;31.10;;;;;;;;;;1035997;28;20052;-79
2021/03/02 00:52:20;;;;;;;55.17;31.02;;;;;;;;;;1032079;28;20050;-79
2021/03/02 00:52:51;;;;;;;58.05;29.83;;;;;;;;;;1028662;28;20157;-78
2021/03/02 00:53:22;;;;;;;49.63;28.58;;;;;;;;;;1036395;28;20337;-78
2021/03/02 00:53:53;;;;;;;53.13;28.50;;;;;;;;;;1036502;28;20057;-79
2021/03/02 00:54:24;;;;;;;56.75;31.77;;;;;;;;;;1036437;28;20089;-77
2021/03/02 00:54:55;;;;;;;53.33;30.65;;;;;;;;;;1036327;28;20173;-78
2021/03/02 00:55:26;;;;;;;54.70;30.58;;;;;;;;;;1040615;28;20100;-78
2021/03/02 00:55:57;;;;;;;56.58;30.77;;;;;;;;;;1035971;28;20042;-79
2021/03/02 00:56:28;;;;;;;54.17;30.67;;;;;;;;;;1036298;28;20042;-79
2021/03/02 00:56:59;;;;;;;53.05;28.95;;;;;;;;;;1040554;28;20128;-78
2021/03/02 00:57:30;;;;;;;52.47;30.17;;;;;;;;;;1040201;28;20391;-79
2021/03/02 00:58:01;;;;;;;57.28;31.00;;;;;;;;;;1039375;28;20648;-79
2021/03/02 00:58:32;;;;;;;54.72;29.50;;;;;;;;;;1036091;28;20049;-79
2021/03/02 00:59:03;;;;;;;60.50;32.88;;;;;;;;;;1036454;28;20137;-79
2021/03/02 00:59:34;;;;;;;59.83;32.20;;;;;;;;;;1036296;28;20045;-78
2021/03/02 01:00:07;;;;;;;60.15;31.63;;;;;;;;;;1036097;28;20221;-78
2021/03/02 01:00:38;;;;;;;59.80;32.88;;;;;;;;;;1036090;28;20050;-78
2021/03/02 01:01:12;;;;;;;60.80;32.05;;;;;;;;;;1039833;28;20442;-79
2021/03/02 01:01:44;;;;;;;56.75;30.92;;;;;;;;;;1045375;28;20049;-78
2021/03/02 01:02:15;;;;;;;60.97;32.40;;;;;;;;;;1040683;28;20104;-78
2021/03/02 01:02:46;;;;;;;51.97;30.48;;;;;;;;;;1037767;28;20049;-79
2021/03/02 01:03:17;;;;;;;62.42;33.50;;;;;;;;;;1032355;28;20454;-79
2021/03/02 01:03:48;;;;;;;54.72;30.38;;;;;;;;;;1036480;28;20056;-79
2021/03/02 01:04:19;;;;;;;52.80;29.15;;;;;;;;;;1038213;28;20061;-79
2021/03/02 01:04:51;;;;;;;60.55;29.50;;;;;;;;;;1037844;28;20096;-78
2021/03/02 01:05:22;;;;;;;55.13;29.83;;;;;;;;;;1044141;28;20049;-79
2021/03/02 01:05:53;;;;;;;56.75;30.08;;;;;;;;;;1044476;28;20040;-78
2021/03/02 01:06:24;;;;;;;57.30;29.40;;;;;;;;;;1040795;28;20052;-78
2021/03/02 01:06:55;;;;;;;55.88;30.23;;;;;;;;;;1044312;28;20485;-78
2021/03/02 01:07:26;;;;;;;49.50;29.13;;;;;;;;;;1044084;28;20517;-78
2021/03/02 01:07:57;;;;;;;55.80;27.48;;;;;;;;;;1040823;28;20091;-78
2021/03/02 01:08:28;;;;;;;59.67;32.50;;;;;;;;;;1044177;28;20635;-78
2021/03/02 01:09:00;;;;;;;55.95;29.88;;;;;;;;;;1044545;28;20124;-78
2021/03/02 01:09:31;;;;;;;48.95;28.13;;;;;;;;;;1040174;28;20167;-79
2021/03/02 01:10:04;;;;;;;51.03;27.48;;;;;;;;;;1040625;28;20041;-78
2021/03/02 01:10:35;;;;;;;54.95;29.73;;;;;;;;;;1035865;28;20154;-77
2021/03/02 01:11:22;;;;;;;53.42;28.10;;;;;;;;;;1030441;28;20417;-78
2021/03/02 01:11:53;;;;;;;52.90;27.70;;;;;;;;;;1031942;28;20042;-79
2021/03/02 01:12:28;;;;;;;48.92;28.33;;;;;;;;;;1035987;28;20069;-78
2021/03/02 01:12:59;;;;;;;56.22;31.83;;;;;;;;;;1036041;28;20045;-78
2021/03/02 01:13:31;;;;;;;66.88;34.75;;;;;;;;;;1036049;28;20438;-78
2021/03/02 01:14:02;;;;;;;51.47;28.02;;;;;;;;;;1033410;28;20074;-78
2021/03/02 01:14:33;;;;;;;55.63;31.00;;;;;;;;;;1032761;28;20062;-78
2021/03/02 01:15:06;;;;;;;51.88;27.83;;;;;;;;;;1033071;28;20054;-78
2021/03/02 01:15:38;;;;;;;50.15;28.77;;;;;;;;;;1032569;28;20427;-78
2021/03/02 01:16:09;;;;;;;53.97;28.50;;;;;;;;;;1032731;28;20450;-78
2021/03/02 01:16:40;;;;;;;43.53;26.60;;;;;;;;;;1035913;28;20128;-78
2021/03/02 01:17:11;;;;;;;51.08;28.92;;;;;;;;;;1036406;28;20077;-79
2021/03/02 01:17:42;;;;;;;49.25;28.85;;;;;;;;;;1035947;28;20045;-77
2021/03/02 01:18:14;;;;;;;48.92;28.23;;;;;;;;;;1031984;28;20042;-78
2021/03/02 01:18:45;;;;;;;50.65;28.67;;;;;;;;;;1028165;28;20109;-78
2021/03/02 01:19:16;;;;;;;47.80;28.13;;;;;;;;;;1028776;28;20057;-78
2021/03/02 01:19:47;;;;;;;50.10;27.10;;;;;;;;;;1032159;28;20046;-78
2021/03/02 01:20:18;;;;;;;46.40;26.55;;;;;;;;;;1032283;28;20056;-78
2021/03/02 01:20:49;;;;;;;51.20;28.50;;;;;;;;;;1035815;28;20152;-78
2021/03/02 01:21:20;;;;;;;49.63;29.92;;;;;;;;;;1032308;28;20510;-79
2021/03/02 01:21:51;;;;;;;53.08;29.55;;;;;;;;;;1031955;28;20535;-78
2021/03/02 01:22:22;;;;;;;56.53;30.42;;;;;;;;;;1039485;28;20049;-78
2021/03/02 01:22:53;;;;;;;57.78;29.67;;;;;;;;;;1040025;28;20053;-78
2021/03/02 01:23:24;;;;;;;54.00;31.58;;;;;;;;;;1040035;28;20136;-78
2021/03/02 01:23:55;;;;;;;57.80;32.42;;;;;;;;;;1034724;28;20467;-78
2021/03/02 01:24:26;;;;;;;59.25;30.10;;;;;;;;;;1031923;28;20042;-79
2021/03/02 01:24:57;;;;;;;52.47;29.00;;;;;;;;;;1037095;28;20181;-79
2021/03/02 01:25:28;;;;;;;54.28;30.77;;;;;;;;;;1036344;28;20406;-78
2021/03/02 01:26:00;;;;;;;51.63;30.08;;;;;;;;;;1040445;28;20045;-78
2021/03/02 01:26:30;;;;;;;56.70;30.52;;;;;;;;;;1044311;28;20059;-79
2021/03/02 01:27:02;;;;;;;60.13;31.98;;;;;;;;;;1042147;28;20092;-79
2021/03/02 01:27:33;;;;;;;56.38;30.17;;;;;;;;;;1040333;28;20429;-79
2021/03/02 01:28:04;;;;;;;51.10;28.45;;;;;;;;;;1044314;28;20055;-79
2021/03/02 01:28:35;;;;;;;53.53;29.83;;;;;;;;;;1039970;28;20132;-78
2021/03/02 01:29:06;;;;;;;53.58;28.80;;;;;;;;;;1036450;28;20045;-79
2021/03/02 01:29:37;;;;;;;55.97;30.13;;;;;;;;;;1036796;28;20113;-79
2021/03/02 01:30:12;;;;;;;55.22;30.58;;;;;;;;;;1039935;28;20131;-79
2021/03/02 01:30:43;;;;;;;50.40;28.40;;;;;;;;;;1036683;28;20046;-78
2021/03/02 01:31:15;;;;;;;56.15;29.60;;;;;;;;;;1035880;28;20115;-78
2021/03/02 01:31:47;;;;;;;50.15;28.92;;;;;;;;;;1040242;28;20085;-78
2021/03/02 01:32:18;;;;;;;56.33;29.80;;;;;;;;;;1044221;28;20060;-79
2021/03/02 01:32:49;;;;;;;54.20;29.70;;;;;;;;;;1040100;28;20057;-79
2021/03/02 01:33:20;;;;;;;50.63;28.92;;;;;;;;;;1040815;28;20051;-77
2021/03/02 01:33:52;;;;;;;54.92;29.27;;;;;;;;;;1044598;28;20375;-78
2021/03/02 01:34:23;;;;;;;48.25;27.88;;;;;;;;;;1044186;28;20166;-79
2021/03/02 01:34:54;;;;;;;54.47;28.85;;;;;;;;;;1044098;28;20547;-79
2021/03/02 01:35:25;;;;;;;48.17;28.15;;;;;;;;;;1040084;28;20048;-79
2021/03/02 01:35:56;;;;;;;55.92;29.50;;;;;;;;;;1040395;28;20053;-79
2021/03/02 01:36:28;;;;;;;52.35;29.38;;;;;;;;;;1040468;28;20120;-79
2021/03/02 01:37:00;;;;;;;54.17;31.63;;;;;;;;;;1036486;28;20127;-78
2021/03/02 01:37:31;;;;;;;50.97;28.73;;;;;;;;;;1027747;28;20053;-79
2021/03/02 01:38:02;;;;;;;57.65;29.55;;;;;;;;;;1028335;28;20051;-79
2021/03/02 01:38:33;;;;;;;61.40;30.75;;;;;;;;;;1032227;28;20102;-79
2021/03/02 01:39:04;;;;;;;52.47;29.73;;;;;;;;;;1036361;28;20068;-79
2021/03/02 01:39:35;;;;;;;56.80;30.50;;;;;;;;;;1036186;28;20490;-79
2021/03/02 01:40:11;;;;;;;58.40;31.75;;;;;;;;;;1039650;28;20120;-79
2021/03/02 01:40:42;;;;;;;53.25;29.08;;;;;;;;;;1035912;28;20050;-79
2021/03/02 01:41:14;;;;;;;51.95;28.83;;;;;;;;;;1033292;28;20057;-79
2021/03/02 01:41:52;;;;;;;53.90;29.27;;;;;;;;;;1039764;28;20050;-79
2021/03/02 01:42:23;;;;;;;57.67;30.83;;;;;;;;;;1039996;28;20053;-79
2021/03/02 01:42:54;;;;;;;54.47;29.00;;;;;;;;;;1044080;28;20049;-79
2021/03/02 01:43:25;;;;;;;54.22;28.92;;;;;;;;;;1042906;28;20052;-79
2021/03/02 01:43:56;;;;;;;50.25;28.90;;;;;;;;;;1040285;28;20478;-79
2021/03/02 01:44:28;;;;;;;51.85;28.92;;;;;;;;;;1044458;28;20075;-79
2021/03/02 01:44:59;;;;;;;51.75;27.92;;;;;;;;;;1048340;28;21052;-79
2021/03/02 01:45:30;;;;;;;53.28;28.48;;;;;;;;;;1052432;28;20189;-78
2021/03/02 01:46:02;;;;;;;58.10;30.05;;;;;;;;;;1048713;28;20048;-78
2021/03/02 01:46:33;;;;;;;58.25;30.48;;;;;;;;;;1041701;28;20049;-78
2021/03/02 01:47:05;;;;;;;55.00;29.77;;;;;;;;;;1040091;28;20468;-79
2021/03/02 01:47:36;;;;;;;52.97;29.15;;;;;;;;;;1040488;28;20059;-78
2021/03/02 01:48:08;;;;;;;59.38;31.15;;;;;;;;;;1038299;28;20053;-79
2021/03/02 01:48:40;;;;;;;59.75;30.17;;;;;;;;;;1035903;28;20101;-79
2021/03/02 01:49:11;;;;;;;55.88;31.42;;;;;;;;;;1036428;28;20054;-78
2021/03/02 01:49:42;;;;;;;61.53;31.48;;;;;;;;;;1040088;28;20085;-78
2021/03/02 01:50:13;;;;;;;57.83;30.08;;;;;;;;;;1040320;28;20046;-78
2021/03/02 01:50:44;;;;;;;56.17;30.83;;;;;;;;;;1040015;28;20110;-78
2021/03/02 01:51:15;;;;;;;55.38;30.08;;;;;;;;;;1041350;28;20057;-79
2021/03/02 01:51:47;;;;;;;60.13;30.13;;;;;;;;;;1044214;28;20056;-79
2021/03/02 01:52:18;;;;;;;53.20;28.90;;;;;;;;;;1040467;28;20049;-79
2021/03/02 01:52:49;;;;;;;55.53;28.67;;;;;;;;;;1044408;28;20064;-78
2021/03/02 01:53:20;;;;;;;47.25;28.67;;;;;;;;;;1040488;28;20050;-78
2021/03/02 01:53:51;;;;;;;55.97;29.27;;;;;;;;;;1036295;28;20054;-78
2021/03/02 01:54:22;;;;;;;52.38;28.67;;;;;;;;;;1039850;28;20050;-81
2021/03/02 01:54:53;;;;;;;55.55;29.42;;;;;;;;;;1040560;28;20049;-78
2021/03/02 01:55:24;;;;;;;55.75;30.52;;;;;;;;;;1048492;28;20044;-78
2021/03/02 01:55:56;;;;;;;55.75;30.00;;;;;;;;;;1048262;28;20101;-78
2021/03/02 01:56:27;;;;;;;53.28;30.98;;;;;;;;;;1040742;28;20136;-79
2021/03/02 01:56:58;;;;;;;56.25;31.35;;;;;;;;;;1035952;28;20050;-78
2021/03/02 01:57:29;;;;;;;54.15;29.23;;;;;;;;;;1031952;28;20399;-79
2021/03/02 01:58:00;;;;;;;55.83;29.67;;;;;;;;;;1036214;28;20061;-79
2021/03/02 01:58:31;;;;;;;61.05;31.77;;;;;;;;;;1036227;28;20132;-79
2021/03/02 01:59:03;;;;;;;60.75;31.60;;;;;;;;;;1040354;28;20513;-79
2021/03/02 01:59:34;;;;;;;59.47;31.35;;;;;;;;;;1042590;28;20049;-79
2021/03/02 02:00:29;;;;;;;59.85;32.75;;;;;;;;;;1044782;28;20060;-79
2021/03/02 02:01:05;;;;;;;49.42;27.35;;;;;;;;;;1044991;28;20052;-78
2021/03/02 02:01:36;;;;;;;54.95;28.98;;;;;;;;;;1048415;28;20400;-79
2021/03/02 02:02:08;;;;;;;52.85;31.52;;;;;;;;;;1048866;28;20055;-78
2021/03/02 02:02:50;;;;;;;54.50;30.60;;;;;;;;;;1052186;28;20502;-78
2021/03/02 02:03:35;;;;;;;59.15;29.27;;;;;;;;;;1047155;28;20481;-78
2021/03/02 02:04:12;;;;;;;58.72;30.25;;;;;;;;;;1040132;28;20406;-78
2021/03/02 02:04:48;;;;;;;62.38;31.48;;;;;;;;;;1039921;28;20099;-78
2021/03/02 02:05:21;;;;;;;60.30;31.67;;;;;;;;;;1039661;28;20490;-78
2021/03/02 02:06:00;;;;;;;60.40;31.88;;;;;;;;;;1037917;28;20137;-78
2021/03/02 02:06:38;;;;;;;61.65;31.13;;;;;;;;;;1034262;28;20050;-79
2021/03/02 02:07:14;;;;;;;60.58;30.20;;;;;;;;;;1030365;28;20050;-79
2021/03/02 02:07:51;;;;;;;57.30;30.90;;;;;;;;;;1034705;28;20050;-79
2021/03/02 02:08:52;;;;;;;53.55;28.38;;;;;;;;;;1044132;28;20144;-78
2021/03/02 02:09:36;;;;;;;54.60;29.98;;;;;;;;;;1046213;28;20053;-78
2021/03/02 02:10:17;;;;;;;51.58;27.63;;;;;;;;;;1050433;28;20040;-78
2021/03/02 02:10:58;;;;;;;55.45;30.63;;;;;;;;;;1052446;28;20044;-78
2021/03/02 02:11:38;;;;;;;58.28;30.20;;;;;;;;;;1039954;28;20053;-79
2021/03/02 02:12:27;;;;;;;58.65;30.35;;;;;;;;;;1039854;28;20045;-79
2021/03/02 02:13:07;;;;;;;57.30;30.75;;;;;;;;;;1039916;28;20041;-79
2021/03/02 02:13:41;;;;;;;51.70;27.35;;;;;;;;;;1035846;28;20050;-78
2021/03/02 02:14:29;;;;;;;56.05;30.10;;;;;;;;;;1038215;28;20058;-78
2021/03/02 02:15:06;;;;;;;55.35;29.30;;;;;;;;;;1040024;28;20509;-79
2021/03/02 02:15:38;;;;;;;59.53;31.60;;;;;;;;;;1048076;28;20503;-78
2021/03/02 02:16:10;;;;;;;61.53;32.10;;;;;;;;;;1039991;28;20052;-78
2021/03/02 02:16:42;;;;;;;63.65;32.67;;;;;;;;;;1036026;28;20376;-79
2021/03/02 02:17:23;;;;;;;56.47;30.90;;;;;;;;;;1035847;28;20141;-79
2021/03/02 02:18:03;;;;;;;52.95;29.30;;;;;;;;;;1041488;28;20049;-79
2021/03/02 02:18:35;;;;;;;55.03;30.35;;;;;;;;;;1043171;28;20107;-78
2021/03/02 02:19:16;;;;;;;56.63;30.80;;;;;;;;;;1042943;28;20060;-79
2021/03/02 02:19:49;;;;;;;53.03;30.25;;;;;;;;;;1042936;28;20099;-79
2021/03/02 02:20:26;;;;;;;53.55;29.15;;;;;;;;;;1038005;28;20054;-78
2021/03/02 02:21:06;;;;;;;51.58;28.17;;;;;;;;;;1038592;28;20049;-78
2021/03/02 02:21:50;;;;;;;52.78;30.02;;;;;;;;;;1042775;28;20053;-79
2021/03/02 02:22:30;;;;;;;56.85;29.30;;;;;;;;;;1041310;28;20060;-79
2021/03/02 02:23:18;;;;;;;54.67;28.77;;;;;;;;;;1035836;28;20050;-78
2021/03/02 02:24:14;;;;;;;58.53;27.55;;;;;;;;;;1031748;28;20505;-78
2021/03/02 02:25:02;;;;;;;48.97;25.90;;;;;;;;;;1040151;28;20054;-78
2021/03/02 02:25:49;;;;;;;54.88;28.90;;;;;;;;;;1039978;28;20049;-78
2021/03/02 02:26:57;;;;;;;57.75;29.80;;;;;;;;;;1041258;28;20054;-78
2021/03/02 02:27:30;;;;;;;54.47;28.08;;;;;;;;;;1047532;28;20437;-79
2021/03/02 02:28:02;;;;;;;56.78;27.60;;;;;;;;;;1045255;28;20513;-78
2021/03/02 02:28:34;;;;;;;60.47;31.23;;;;;;;;;;1048274;28;20040;-78
2021/03/02 02:29:06;;;;;;;58.42;31.15;;;;;;;;;;1044705;28;20056;-78
2021/03/02 02:29:38;;;;;;;66.15;31.63;;;;;;;;;;1043352;28;20048;-78
2021/03/02 02:30:10;;;;;;;67.90;32.40;;;;;;;;;;1035661;28;20192;-78
2021/03/02 02:30:43;;;;;;;56.45;30.13;;;;;;;;;;1040036;28;20524;-79
2021/03/02 02:31:18;;;;;;;60.50;30.40;;;;;;;;;;1039696;28;20054;-78
2021/03/02 02:31:50;;;;;;;62.13;33.53;;;;;;;;;;1035810;28;20077;-78
2021/03/02 02:32:22;;;;;;;66.53;33.25;;;;;;;;;;1033140;28;20161;-79
2021/03/02 02:32:54;;;;;;;63.20;32.15;;;;;;;;;;1032963;28;20105;-78
2021/03/02 02:33:31;;;;;;;61.45;30.70;;;;;;;;;;1034308;28;20054;-78
2021/03/02 02:34:03;;;;;;;59.75;30.45;;;;;;;;;;1037779;28;20188;-78
2021/03/02 02:34:36;;;;;;;64.18;33.45;;;;;;;;;;1043498;28;20475;-78
2021/03/02 02:35:09;;;;;;;64.97;33.70;;;;;;;;;;1046404;28;20128;-79
2021/03/02 02:35:42;;;;;;;58.15;31.25;;;;;;;;;;1041780;28;20049;-79
2021/03/02 02:36:16;;;;;;;58.83;30.90;;;;;;;;;;1040894;28;20104;-79
2021/03/02 02:36:52;;;;;;;62.13;34.00;;;;;;;;;;1040266;28;20045;-78
2021/03/02 02:37:25;;;;;;;60.53;31.10;;;;;;;;;;1035892;28;20053;-79
2021/03/02 02:37:57;;;;;;;67.43;33.35;;;;;;;;;;1038219;28;20056;-78
2021/03/02 02:38:29;;;;;;;66.68;33.70;;;;;;;;;;1040485;28;20549;-78
2021/03/02 02:39:00;;;;;;;63.97;33.08;;;;;;;;;;1036651;28;20050;-78
2021/03/02 02:39:34;;;;;;;65.43;32.28;;;;;;;;;;1036560;28;20410;-78
2021/03/02 02:40:06;;;;;;;67.07;34.40;;;;;;;;;;1035554;28;20196;-79
2021/03/02 02:40:38;;;;;;;63.47;33.22;;;;;;;;;;1037412;28;20077;-79
2021/03/02 02:41:10;;;;;;;67.68;36.38;;;;;;;;;;1040899;28;20524;-78
2021/03/02 02:41:42;;;;;;;68.55;33.38;;;;;;;;;;1038335;28;20050;-78
2021/03/02 02:42:23;;;;;;;63.58;34.72;;;;;;;;;;1044820;28;20048;-79
2021/03/02 02:42:54;;;;;;;61.22;32.35;;;;;;;;;;1044815;28;20071;-78
2021/03/02 02:43:26;;;;;;;63.78;33.10;;;;;;;;;;1042465;28;20430;-78
2021/03/02 02:43:57;;;;;;;69.28;34.38;;;;;;;;;;1040341;28;20054;-78
2021/03/02 02:44:30;;;;;;;69.03;34.53;;;;;;;;;;1040611;28;20053;-78
2021/03/02 02:45:02;;;;;;;65.63;33.20;;;;;;;;;;1044097;28;20052;-79
2021/03/02 02:45:33;;;;;;;66.43;33.70;;;;;;;;;;1040364;28;20072;-79
2021/03/02 02:46:04;;;;;;;72.65;36.58;;;;;;;;;;1040573;28;20049;-79
2021/03/02 02:46:35;;;;;;;67.95;35.13;;;;;;;;;;1041259;28;20074;-78
2021/03/02 02:47:08;;;;;;;67.28;35.72;;;;;;;;;;1041055;28;20054;-78
2021/03/02 02:47:39;;;;;;;72.80;34.90;;;;;;;;;;1045419;28;20503;-79
2021/03/02 02:48:10;;;;;;;65.53;33.55;;;;;;;;;;1045217;28;20094;-79
2021/03/02 02:48:43;;;;;;;64.03;33.35;;;;;;;;;;1040679;28;20045;-78
2021/03/02 02:49:15;;;;;;;63.80;34.55;;;;;;;;;;1041419;28;20046;-79
2021/03/02 02:49:46;;;;;;;60.78;32.50;;;;;;;;;;1043402;28;20083;-79
2021/03/02 02:50:18;;;;;;;66.07;34.33;;;;;;;;;;1036436;28;20653;-78
2021/03/02 02:50:51;;;;;;;64.35;32.65;;;;;;;;;;1032447;28;20058;-78
2021/03/02 02:51:23;;;;;;;60.47;30.98;;;;;;;;;;1035031;28;20057;-78
2021/03/02 02:51:54;;;;;;;53.47;29.13;;;;;;;;;;1040603;28;20050;-79
2021/03/02 02:52:26;;;;;;;58.85;30.20;;;;;;;;;;1033203;28;20057;-78
2021/03/02 02:52:58;;;;;;;57.17;30.73;;;;;;;;;;1036395;28;20522;-79
2021/03/02 02:53:29;;;;;;;61.70;31.08;;;;;;;;;;1032830;28;20054;-78
2021/03/02 02:54:00;;;;;;;55.00;30.17;;;;;;;;;;1036568;28;20053;-78
2021/03/02 02:54:31;;;;;;;61.63;31.40;;;;;;;;;;1037721;28;20046;-78
2021/03/02 02:55:03;;;;;;;57.50;33.33;;;;;;;;;;1041019;28;20053;-79
2021/03/02 02:55:50;;;;;;;58.92;31.13;;;;;;;;;;1040429;28;20045;-78
2021/03/02 02:56:21;;;;;;;54.42;28.00;;;;;;;;;;1038931;28;20442;-78
2021/03/02 02:56:53;;;;;;;57.08;30.60;;;;;;;;;;1041090;28;20045;-78
2021/03/02 02:57:25;;;;;;;56.70;29.77;;;;;;;;;;1038837;28;20061;-79
2021/03/02 02:57:58;;;;;;;53.00;30.48;;;;;;;;;;1042497;28;20046;-79
2021/03/02 02:58:48;;;;;;;51.05;29.25;;;;;;;;;;1033281;28;20078;-78
2021/03/02 02:59:25;;;;;;;60.38;30.70;;;;;;;;;;1036843;28;20050;-78
2021/03/02 02:59:57;;;;;;;58.80;29.65;;;;;;;;;;1028865;28;20126;-78
2021/03/02 03:00:29;;;;;;;67.03;34.85;;;;;;;;;;1039825;28;20057;-79
2021/03/02 03:01:03;;;;;;;66.43;34.10;;;;;;;;;;1041909;28;20050;-79
2021/03/02 03:01:39;;;;;;;65.55;35.88;;;;;;;;;;1041348;28;20124;-78
2021/03/02 03:02:14;;;;;;;67.40;34.03;;;;;;;;;;1040765;28;20119;-78
2021/03/02 03:02:50;;;;;;;70.25;35.60;;;;;;;;;;1042577;28;20486;-79
2021/03/02 03:03:23;;;;;;;65.45;35.42;;;;;;;;;;1034135;28;20105;-79
2021/03/02 03:03:56;;;;;;;65.28;33.42;;;;;;;;;;1038149;28;20081;-78
2021/03/02 03:04:44;;;;;;;59.63;31.67;;;;;;;;;;1032325;28;20057;-78
2021/03/02 03:05:23;;;;;;;57.95;29.20;;;;;;;;;;1035584;28;20056;-78
2021/03/02 03:05:57;;;;;;;58.40;32.05;;;;;;;;;;1038812;28;20042;-79
2021/03/02 03:06:31;;;;;;;58.88;31.58;;;;;;;;;;1044713;28;20405;-78
2021/03/02 03:07:04;;;;;;;56.08;29.40;;;;;;;;;;1040572;28;20514;-78
2021/03/02 03:07:39;;;;;;;55.42;30.63;;;;;;;;;;1044518;28;20102;-78
2021/03/02 03:08:28;;;;;;;62.28;30.02;;;;;;;;;;1040470;28;20569;-78
2021/03/02 03:09:01;;;;;;;57.38;31.58;;;;;;;;;;1047875;28;20059;-78
2021/03/02 03:09:32;;;;;;;59.50;30.10;;;;;;;;;;1048147;28;20056;-78
2021/03/02 03:10:05;;;;;;;63.97;33.80;;;;;;;;;;1045012;28;20045;-78
2021/03/02 03:10:36;;;;;;;59.50;32.03;;;;;;;;;;1041495;28;20053;-79
2021/03/02 03:11:09;;;;;;;57.10;30.48;;;;;;;;;;1039073;28;20082;-78
2021/03/02 03:11:43;;;;;;;59.70;31.73;;;;;;;;;;1037432;28;20109;-78
2021/03/02 03:12:15;;;;;;;56.85;31.70;;;;;;;;;;1041699;28;20041;-78
2021/03/02 03:12:49;;;;;;;57.88;30.70;;;;;;;;;;1042073;28;20060;-78
2021/03/02 03:13:22;;;;;;;62.83;34.67;;;;;;;;;;1040449;28;20053;-78
2021/03/02 03:13:54;;;;;;;62.70;31.85;;;;;;;;;;1033452;28;20054;-78
2021/03/02 03:14:26;;;;;;;60.90;31.85;;;;;;;;;;1037727;28;20053;-78